Time;durP1;ratioP1;P1;durP2;ratioP2;P2;SDS_P1;SDS_P2;PMS_P1;PMS_P2;Temp;Humidity;BMP_temperature;BMP_pressure;BME280_temperature;BME280_humidity;BME280_pressure;Samples;Min_cycle;Max_cycle;Signal;HPM_P1;HPM_P2
2023/01/09 00:01:32;;;;;;;7.63;3.50;;;7.20;99.90;;;;;;4976050;28;94239;-33
2023/01/09 00:03:58;;;;;;;4.93;3.30;;;7.20;99.90;;;;;;4988681;28;93134;-33
2023/01/09 00:06:24;;;;;;;5.38;3.85;;;7.20;99.90;;;;;;4975986;28;94919;-32
2023/01/09 00:08:50;;;;;;;4.65;4.13;;;7.20;99.90;;;;;;4974817;28;93625;-32
2023/01/09 00:11:15;;;;;;;2.83;2.60;;;7.30;99.90;;;;;;4976826;28;92609;-33
2023/01/09 00:13:41;;;;;;;6.32;3.40;;;7.30;99.90;;;;;;4988367;28;94691;-32
2023/01/09 00:16:07;;;;;;;10.27;4.40;;;7.30;99.90;;;;;;4976780;28;94443;-35
2023/01/09 00:18:34;;;;;;;3.15;2.92;;;7.30;99.90;;;;;;4977130;28;94094;-33
2023/01/09 00:21:02;;;;;;;5.00;3.58;;;7.30;99.90;;;;;;4978700;28;92147;-33
2023/01/09 00:23:28;;;;;;;4.53;3.33;;;7.40;99.90;;;;;;4979448;28;93760;-34
2023/01/09 00:26:05;;;;;;;4.90;3.75;;;7.40;99.90;;;;;;4991859;28;95756;-33
2023/01/09 00:28:31;;;;;;;4.80;4.10;;;7.50;99.90;;;;;;4979268;28;95791;-34
2023/01/09 00:30:58;;;;;;;8.23;4.07;;;7.50;99.90;;;;;;4978661;28;93030;-32
2023/01/09 00:33:38;;;;;;;8.40;3.72;;;7.50;99.90;;;;;;4979631;28;92109;-32
2023/01/09 00:36:04;;;;;;;4.45;3.75;;;7.50;99.90;;;;;;4979582;28;94426;-33
2023/01/09 00:38:30;;;;;;;5.60;4.10;;;7.50;99.90;;;;;;4978688;28;96286;-33
2023/01/09 00:40:57;;;;;;;6.72;4.43;;;7.50;99.90;;;;;;4985239;28;93275;-32
2023/01/09 00:43:29;;;;;;;6.70;4.05;;;7.50;99.90;;;;;;4984099;28;92470;-35
2023/01/09 00:45:55;;;;;;;6.05;3.63;;;7.50;99.90;;;;;;4981033;28;95472;-33
2023/01/09 00:48:25;;;;;;;6.03;4.47;;;7.50;99.90;;;;;;4979610;28;94413;-34
2023/01/09 00:50:57;;;;;;;5.07;3.92;;;7.50;99.90;;;;;;4979963;28;94545;-33
2023/01/09 00:53:26;;;;;;;6.57;4.95;;;7.60;99.90;;;;;;4978875;28;94363;-35
2023/01/09 00:55:52;;;;;;;6.10;4.55;;;7.60;99.90;;;;;;4978095;28;95012;-34
2023/01/09 00:58:18;;;;;;;4.95;4.55;;;7.50;99.90;;;;;;4979147;28;94082;-32
2023/01/09 01:00:44;;;;;;;7.90;5.00;;;7.50;99.90;;;;;;4992160;28;94881;-33
2023/01/09 01:03:09;;;;;;;6.00;4.70;;;7.50;99.90;;;;;;4979406;28;94092;-32
2023/01/09 01:08:19;;;;;;;4.78;3.80;;;7.50;99.90;;;;;;4989242;28;94972;-34
2023/01/09 01:10:47;;;;;;;5.28;2.75;;;7.50;99.90;;;;;;4982268;28;94047;-33
2023/01/09 01:13:13;;;;;;;4.13;2.17;;;7.40;99.90;;;;;;4978112;28;93452;-35
2023/01/09 01:15:41;;;;;;;2.45;2.25;;;7.30;99.90;;;;;;4980936;28;95548;-32
2023/01/09 01:18:07;;;;;;;3.95;2.47;;;7.30;99.90;;;;;;4987974;28;95543;-33
2023/01/09 01:20:32;;;;;;;2.30;2.05;;;7.20;99.90;;;;;;4978703;28;94678;-35
2023/01/09 01:22:58;;;;;;;4.13;2.00;;;7.20;99.90;;;;;;4963628;28;94823;-36
2023/01/09 01:25:24;;;;;;;2.78;2.00;;;7.10;99.90;;;;;;4978593;28;94247;-34
2023/01/09 01:27:50;;;;;;;2.45;1.77;;;7.10;99.90;;;;;;4977864;28;94436;-33
2023/01/09 01:30:17;;;;;;;4.57;2.78;;;7.10;99.90;;;;;;4978306;28;93868;-33
2023/01/09 01:32:43;;;;;;;8.40;2.85;;;7.00;99.90;;;;;;4978846;28;91647;-33
2023/01/09 01:35:09;;;;;;;3.65;2.83;;;7.00;99.90;;;;;;4977287;28;94646;-35
2023/01/09 01:37:36;;;;;;;3.38;2.35;;;7.00;99.90;;;;;;4978616;28;94365;-34
2023/01/09 01:40:04;;;;;;;2.70;2.50;;;6.90;99.90;;;;;;4978547;28;95667;-33
2023/01/09 01:42:30;;;;;;;2.80;2.60;;;6.90;99.90;;;;;;4989536;28;93011;-34
2023/01/09 01:45:00;;;;;;;4.95;2.40;;;6.90;99.90;;;;;;4978572;28;95093;-32
2023/01/09 01:47:44;;;;;;;2.70;2.33;;;6.90;99.90;;;;;;4977796;28;94495;-35
2023/01/09 01:50:35;;;;;;;5.18;2.92;;;6.80;99.90;;;;;;4987216;28;93356;-32
2023/01/09 01:53:39;;;;;;;3.55;2.30;;;6.80;99.90;;;;;;4995128;28;92153;-34
2023/01/09 01:56:10;;;;;;;2.90;2.20;;;6.80;99.90;;;;;;4962013;28;94669;-33
2023/01/09 01:58:45;;;;;;;2.70;2.50;;;6.80;99.90;;;;;;4988378;28;94711;-34
2023/01/09 02:01:11;;;;;;;2.85;2.45;;;6.70;99.90;;;;;;4978735;28;93634;-33
2023/01/09 02:03:38;;;;;;;2.58;2.38;;;6.70;99.90;;;;;;4989715;28;93106;-35
2023/01/09 02:06:04;;;;;;;4.10;3.57;;;6.70;99.90;;;;;;4977154;28;95705;-33
2023/01/09 02:08:30;;;;;;;3.70;3.40;;;6.70;99.90;;;;;;4981984;28;95435;-32
2023/01/09 02:10:56;;;;;;;4.47;4.07;;;6.70;99.90;;;;;;4986428;28;92813;-34
2023/01/09 02:13:23;;;;;;;7.10;3.78;;;6.70;99.90;;;;;;4977033;28;94589;-32
2023/01/09 02:16:15;;;;;;;7.10;5.03;;;6.60;99.90;;;;;;4977922;28;94930;-32
2023/01/09 02:18:51;;;;;;;5.18;4.68;;;6.70;99.90;;;;;;4965959;28;94025;-35
2023/01/09 02:21:38;;;;;;;11.88;5.97;;;6.70;99.90;;;;;;4977468;28;94681;-34
2023/01/09 02:24:14;;;;;;;5.07;4.63;;;6.70;99.90;;;;;;4977949;28;91830;-34
2023/01/09 02:27:06;;;;;;;5.05;3.95;;;6.70;99.90;;;;;;4976915;28;94739;-34
2023/01/09 02:30:05;;;;;;;9.18;4.55;;;6.70;99.90;;;;;;4977269;28;94670;-32
2023/01/09 02:32:44;;;;;;;4.30;3.78;;;6.80;99.90;;;;;;4977986;28;95504;-32
2023/01/09 02:35:15;;;;;;;;;;;6.80;99.90;;;;;;4977461;28;92376;-34
2023/01/09 02:38:05;;;;;;;5.78;3.50;;;6.80;99.90;;;;;;4977816;28;95274;-32
2023/01/09 02:40:42;;;;;;;4.13;3.00;;;6.80;99.90;;;;;;4977651;28;95020;-34
2023/01/09 02:43:10;;;;;;;2.80;2.60;;;6.80;99.90;;;;;;4977141;28;94820;-35
2023/01/09 02:45:35;;;;;;;5.18;3.25;;;6.90;99.90;;;;;;4976892;28;94242;-34
2023/01/09 02:48:01;;;;;;;4.03;2.72;;;6.90;99.90;;;;;;4977234;28;94673;-33
2023/01/09 02:51:03;;;;;;;3.58;3.03;;;6.80;99.90;;;;;;4977281;28;94707;-32
2023/01/09 02:54:17;;;;;;;3.85;2.58;;;6.80;99.90;;;;;;4964964;28;93166;-34
2023/01/09 02:57:07;;;;;;;4.57;2.92;;;6.80;99.90;;;;;;4947839;28;93887;-32
2023/01/09 02:59:42;;;;;;;7.63;2.97;;;6.80;99.90;;;;;;4979232;28;95719;-33
2023/01/09 03:02:45;;;;;;;3.95;2.60;;;6.70;99.90;;;;;;4996928;28;95246;-32
2023/01/09 03:05:21;;;;;;;3.15;2.40;;;6.70;99.90;;;;;;4997051;28;93546;-34
2023/01/09 03:07:52;;;;;;;2.90;2.63;;;6.60;99.90;;;;;;4978152;28;94462;-33
2023/01/09 03:10:29;;;;;;;5.07;3.10;;;6.60;99.90;;;;;;4976703;28;94579;-33
2023/01/09 03:12:57;;;;;;;4.40;2.88;;;6.60;99.90;;;;;;4976909;28;94477;-34
2023/01/09 03:15:27;;;;;;;7.47;3.53;;;6.60;99.90;;;;;;4976818;28;94409;-33
2023/01/09 03:17:54;;;;;;;3.15;2.58;;;6.50;99.90;;;;;;4977010;28;93551;-33
2023/01/09 03:20:23;;;;;;;3.50;3.20;;;6.50;99.90;;;;;;4976698;28;94443;-33
2023/01/09 03:22:58;;;;;;;;;;;6.40;99.90;;;;;;4985329;28;94211;-32
2023/01/09 03:25:25;;;;;;;8.60;2.60;;;6.40;99.90;;;;;;4980896;28;93191;-33
2023/01/09 03:27:56;;;;;;;4.88;2.67;;;6.30;99.90;;;;;;4976394;28;92202;-35
2023/01/09 03:30:21;;;;;;;3.65;2.63;;;6.30;99.90;;;;;;4976154;28;94818;-33
2023/01/09 03:32:47;;;;;;;2.85;2.55;;;6.30;99.90;;;;;;4976064;28;94633;-34
2023/01/09 03:35:13;;;;;;;4.00;3.00;;;6.30;99.90;;;;;;4976556;28;94885;-33
2023/01/09 03:37:38;;;;;;;3.38;2.67;;;6.20;99.90;;;;;;4975983;28;93100;-33
2023/01/09 03:40:05;;;;;;;6.72;3.55;;;6.20;99.90;;;;;;4975832;28;94785;-32
2023/01/09 03:42:30;;;;;;;7.45;2.78;;;6.20;99.90;;;;;;4976460;28;94647;-32
2023/01/09 03:44:56;;;;;;;4.03;3.15;;;6.10;99.90;;;;;;4976428;28;93348;-32
2023/01/09 03:47:21;;;;;;;2.45;2.25;;;6.10;99.90;;;;;;4976001;28;92146;-34
2023/01/09 03:49:47;;;;;;;4.13;2.72;;;6.00;99.90;;;;;;4975865;28;95823;-32
2023/01/09 03:52:12;;;;;;;5.13;3.15;;;6.00;99.90;;;;;;4976811;28;95179;-32
2023/01/09 03:54:39;;;;;;;3.50;3.17;;;5.90;99.90;;;;;;4983984;28;92148;-33
2023/01/09 03:57:04;;;;;;;5.05;3.42;;;5.80;99.90;;;;;;4993199;28;94153;-35
2023/01/09 03:59:30;;;;;;;4.03;3.72;;;5.80;99.90;;;;;;4984505;28;94127;-33
2023/01/09 04:01:55;;;;;;;4.68;3.13;;;5.80;99.90;;;;;;4993226;28;93452;-34
2023/01/09 04:04:21;;;;;;;4.82;3.67;;;5.70;99.90;;;;;;4982830;28;92919;-35
2023/01/09 04:06:47;;;;;;;5.20;3.75;;;5.70;99.90;;;;;;4982747;28;93725;-34
2023/01/09 04:09:12;;;;;;;10.02;4.25;;;5.70;99.90;;;;;;4983016;28;94242;-34
2023/01/09 04:11:38;;;;;;;6.63;4.28;;;5.60;99.90;;;;;;4982808;28;94199;-32
2023/01/09 04:14:04;;;;;;;8.57;4.43;;;5.60;99.90;;;;;;4982701;28;95482;-34
2023/01/09 04:16:29;;;;;;;5.88;3.72;;;5.60;99.90;;;;;;4982407;28;92528;-35
2023/01/09 04:18:55;;;;;;;7.93;4.22;;;5.60;99.90;;;;;;4997811;28;94664;-34
2023/01/09 04:21:20;;;;;;;13.43;4.18;;;5.60;99.90;;;;;;4991647;28;94321;-34
2023/01/09 04:23:46;;;;;;;7.85;5.38;;;5.70;99.90;;;;;;4982116;28;94038;-33
2023/01/09 04:26:12;;;;;;;9.00;6.40;;;5.70;99.90;;;;;;4983466;28;93567;-33
2023/01/09 04:28:37;;;;;;;7.80;6.70;;;5.70;99.90;;;;;;4981551;28;94606;-32
2023/01/09 04:31:04;;;;;;;9.35;6.47;;;5.80;99.90;;;;;;4983476;28;94281;-35
2023/01/09 04:33:29;;;;;;;9.82;6.50;;;5.80;99.90;;;;;;4982398;28;93497;-33
2023/01/09 04:35:55;;;;;;;11.57;7.65;;;5.90;99.90;;;;;;4981981;28;94345;-34
2023/01/09 04:38:21;;;;;;;11.75;8.20;;;5.80;99.90;;;;;;4981830;28;95211;-34
2023/01/09 04:40:47;;;;;;;10.45;8.52;;;5.80;99.90;;;;;;4981879;28;95414;-32
2023/01/09 04:43:13;;;;;;;17.75;7.95;;;5.80;99.90;;;;;;4995092;28;92984;-34
2023/01/09 04:45:39;;;;;;;12.38;8.00;;;5.70;99.90;;;;;;4981900;28;94062;-33
2023/01/09 04:48:05;;;;;;;11.25;8.70;;;5.70;99.90;;;;;;4981260;28;94267;-34
2023/01/09 04:50:31;;;;;;;13.65;8.43;;;5.70;99.90;;;;;;4993144;28;94284;-33
2023/01/09 04:52:56;;;;;;;15.40;10.07;;;5.60;99.90;;;;;;4984057;28;93496;-34
2023/01/09 04:55:22;;;;;;;11.10;8.07;;;5.50;99.90;;;;;;4981427;28;93601;-32
2023/01/09 04:57:48;;;;;;;10.88;8.32;;;5.60;99.90;;;;;;4983964;28;94572;-33
2023/01/09 05:00:14;;;;;;;15.48;9.60;;;5.50;99.90;;;;;;4992959;28;95186;-32
2023/01/09 05:02:40;;;;;;;11.15;8.98;;;5.50;99.90;;;;;;4994984;28;95820;-32
2023/01/09 05:05:07;;;;;;;9.40;7.63;;;5.50;99.90;;;;;;4988647;28;93431;-33
2023/01/09 05:07:33;;;;;;;10.48;9.13;;;5.50;99.90;;;;;;4982306;28;94242;-35
2023/01/09 05:09:59;;;;;;;10.85;9.75;;;5.50;99.90;;;;;;4982027;28;94718;-32
2023/01/09 05:12:24;;;;;;;15.07;10.98;;;5.50;99.90;;;;;;4982195;28;92245;-32
2023/01/09 05:14:50;;;;;;;13.88;11.25;;;5.50;99.90;;;;;;4988038;28;93270;-33
2023/01/09 05:17:15;;;;;;;16.65;11.70;;;5.50;99.90;;;;;;4980678;28;94718;-32
2023/01/09 05:19:41;;;;;;;15.80;11.23;;;5.50;99.90;;;;;;4978321;28;94888;-33
2023/01/09 05:22:07;;;;;;;14.02;11.57;;;5.50;99.90;;;;;;4983439;28;92772;-32
2023/01/09 05:24:32;;;;;;;16.52;12.30;;;5.50;99.90;;;;;;4978007;28;94178;-35
2023/01/09 05:27:01;;;;;;;14.32;10.90;;;5.50;99.90;;;;;;4977411;28;95730;-32
2023/01/09 05:29:27;;;;;;;;;;;5.50;99.90;;;;;;4978532;28;95015;-32
2023/01/09 05:31:52;;;;;;;16.95;12.35;;;5.50;99.90;;;;;;4979096;28;93240;-33
2023/01/09 05:34:18;;;;;;;18.02;13.60;;;5.50;99.90;;;;;;4978885;28;93579;-32
2023/01/09 05:36:44;;;;;;;16.27;12.93;;;5.50;99.90;;;;;;4977040;28;95141;-34
2023/01/09 05:39:09;;;;;;;14.52;12.18;;;5.60;99.90;;;;;;4977431;28;94694;-32
2023/01/09 05:41:35;;;;;;;14.43;11.77;;;5.50;99.90;;;;;;4977143;28;93259;-33
2023/01/09 05:44:01;;;;;;;16.05;12.65;;;5.50;99.90;;;;;;4977769;28;92442;-33
2023/01/09 05:46:26;;;;;;;21.45;12.73;;;5.60;99.90;;;;;;4977479;28;94991;-32
2023/01/09 05:48:52;;;;;;;18.50;10.00;;;5.50;99.90;;;;;;4976767;28;94782;-32
2023/01/09 05:51:17;;;;;;;18.60;10.75;;;5.50;99.90;;;;;;4977607;28;94052;-34
2023/01/09 05:53:43;;;;;;;13.27;10.15;;;5.50;99.90;;;;;;4976670;28;93240;-35
2023/01/09 05:56:08;;;;;;;14.35;11.68;;;5.50;99.90;;;;;;4976982;28;95091;-33
2023/01/09 05:58:34;;;;;;;14.90;11.13;;;5.50;99.90;;;;;;4976404;28;96158;-33
2023/01/09 06:01:00;;;;;;;13.07;8.30;;;5.50;99.90;;;;;;4990251;28;93391;-34
2023/01/09 06:03:25;;;;;;;15.07;9.93;;;5.50;99.90;;;;;;4977956;28;92687;-32
2023/01/09 06:05:51;;;;;;;12.15;9.80;;;5.60;99.90;;;;;;4976555;28;95163;-32
2023/01/09 06:08:16;;;;;;;11.55;10.05;;;5.60;99.90;;;;;;4986605;28;94247;-34
2023/01/09 06:10:42;;;;;;;15.98;10.02;;;5.70;99.90;;;;;;4981000;28;93833;-34
2023/01/09 06:13:08;;;;;;;14.60;10.70;;;5.60;99.90;;;;;;4978016;28;92500;-32
2023/01/09 06:15:33;;;;;;;20.17;11.48;;;5.60;99.90;;;;;;4958577;28;97279;-32
2023/01/09 06:17:59;;;;;;;13.63;10.45;;;5.50;99.90;;;;;;4976884;28;96287;-33
2023/01/09 06:20:24;;;;;;;13.82;10.10;;;5.60;99.90;;;;;;4990531;28;93256;-34
2023/01/09 06:22:52;;;;;;;13.57;10.05;;;5.60;99.90;;;;;;4978167;28;94044;-32
2023/01/09 06:25:17;;;;;;;12.32;8.52;;;5.50;99.90;;;;;;4980635;28;94488;-32
2023/01/09 06:27:43;;;;;;;13.77;9.30;;;5.60;99.90;;;;;;4977013;28;94623;-33
2023/01/09 06:30:09;;;;;;;16.27;8.27;;;5.60;99.90;;;;;;4977752;28;92333;-33
2023/01/09 06:32:35;;;;;;;8.15;7.10;;;5.70;99.90;;;;;;4981640;28;92824;-31
2023/01/09 06:35:01;;;;;;;10.50;9.50;;;5.80;99.90;;;;;;4976743;28;94839;-34
2023/01/09 06:37:27;;;;;;;12.32;9.15;;;5.70;99.90;;;;;;4977522;28;93039;-32
2023/01/09 06:39:53;;;;;;;11.07;8.43;;;5.70;99.90;;;;;;4979218;28;94224;-34
2023/01/09 06:42:20;;;;;;;15.90;9.38;;;5.70;99.90;;;;;;4976732;28;93296;-32
2023/01/09 06:44:46;;;;;;;9.52;8.10;;;5.80;99.90;;;;;;4978459;28;94568;-33
2023/01/09 06:47:12;;;;;;;16.55;8.93;;;5.80;99.90;;;;;;4984160;28;94514;-32
2023/01/09 06:49:37;;;;;;;10.73;8.10;;;5.80;99.90;;;;;;4977259;28;92796;-32
2023/01/09 06:52:06;;;;;;;7.80;7.00;;;5.80;99.90;;;;;;4977771;28;92311;-32
2023/01/09 06:54:31;;;;;;;14.05;8.93;;;5.80;99.90;;;;;;4976993;28;94674;-31
2023/01/09 06:56:57;;;;;;;11.88;9.27;;;5.80;99.90;;;;;;4977253;28;95096;-32
2023/01/09 06:59:22;;;;;;;10.90;7.75;;;5.70;99.90;;;;;;4978008;28;92732;-32
2023/01/09 07:01:48;;;;;;;10.95;8.50;;;5.70;99.90;;;;;;4977291;28;92260;-31
2023/01/09 07:04:13;;;;;;;9.35;8.30;;;5.70;99.90;;;;;;4976952;28;95519;-33
2023/01/09 07:06:39;;;;;;;16.08;8.90;;;5.70;99.90;;;;;;4975369;28;95337;-33
2023/01/09 07:09:05;;;;;;;11.18;7.97;;;5.60;99.90;;;;;;4976988;28;93091;-31
2023/01/09 07:11:31;;;;;;;10.52;7.43;;;5.60;99.90;;;;;;4985556;28;92276;-33
2023/01/09 07:13:56;;;;;;;17.02;7.80;;;5.60;99.90;;;;;;4979362;28;92984;-34
2023/01/09 07:16:22;;;;;;;9.52;7.70;;;5.50;99.90;;;;;;4977188;28;93456;-32
2023/01/09 07:18:47;;;;;;;7.82;6.22;;;5.40;99.90;;;;;;4987684;28;94054;-32
2023/01/09 07:21:13;;;;;;;9.95;7.45;;;5.30;99.90;;;;;;4977694;28;91492;-31
2023/01/09 07:23:39;;;;;;;9.23;6.50;;;5.30;99.90;;;;;;4976537;28;94711;-32
2023/01/09 07:26:04;;;;;;;9.80;5.30;;;5.20;99.90;;;;;;4985170;28;94454;-35
2023/01/09 07:28:30;;;;;;;9.20;6.70;;;5.20;99.90;;;;;;4962019;28;94957;-32
2023/01/09 07:31:00;;;;;;;11.07;5.68;;;5.20;99.90;;;;;;4985785;28;93562;-35
2023/01/09 07:33:25;;;;;;;11.20;6.38;;;5.10;99.90;;;;;;4975938;28;94862;-33
2023/01/09 07:35:51;;;;;;;12.82;6.03;;;5.00;99.90;;;;;;4976927;28;95126;-32
2023/01/09 07:38:17;;;;;;;10.90;6.20;;;5.10;99.90;;;;;;4979067;28;93518;-31
2023/01/09 07:40:42;;;;;;;10.95;5.35;;;5.00;99.90;;;;;;4984860;28;94135;-34
2023/01/09 07:43:08;;;;;;;7.50;5.72;;;5.10;99.90;;;;;;4986532;28;95096;-35
2023/01/09 07:45:33;;;;;;;11.45;4.95;;;5.10;99.90;;;;;;4976597;28;94619;-34
2023/01/09 07:47:59;;;;;;;15.38;6.15;;;5.20;99.90;;;;;;4976136;28;95262;-33
2023/01/09 07:50:25;;;;;;;8.73;6.35;;;5.10;99.90;;;;;;4976495;28;93909;-33
2023/01/09 07:52:50;;;;;;;7.38;5.75;;;5.10;99.90;;;;;;4975594;28;95818;-32
2023/01/09 07:55:16;;;;;;;9.70;5.82;;;5.20;99.90;;;;;;4975427;28;95903;-32
2023/01/09 07:57:42;;;;;;;10.10;5.85;;;5.20;99.90;;;;;;4977823;28;94310;-35
2023/01/09 08:00:09;;;;;;;9.07;5.05;;;5.20;99.90;;;;;;4987672;28;92823;-33
2023/01/09 08:02:35;;;;;;;6.75;5.53;;;5.30;99.90;;;;;;4976538;28;94807;-36
2023/01/09 08:05:01;;;;;;;11.35;5.82;;;5.30;99.90;;;;;;4975555;28;94449;-33
2023/01/09 08:07:27;;;;;;;8.15;5.25;;;5.30;99.90;;;;;;4976069;28;94163;-33
2023/01/09 08:09:52;;;;;;;9.20;4.78;;;5.30;99.90;;;;;;4976305;28;92507;-33
2023/01/09 08:12:18;;;;;;;5.47;4.65;;;5.40;99.90;;;;;;4978805;28;94707;-31
2023/01/09 08:14:43;;;;;;;6.93;5.68;;;5.30;99.90;;;;;;4981834;28;94525;-34
2023/01/09 08:17:10;;;;;;;7.55;5.20;;;5.40;99.90;;;;;;4981863;28;94956;-32
2023/01/09 08:19:36;;;;;;;13.20;5.00;;;5.40;99.90;;;;;;4975173;28;93127;-33
2023/01/09 08:22:02;;;;;;;7.80;4.97;;;5.50;99.90;;;;;;4977196;28;94557;-34
2023/01/09 08:24:29;;;;;;;9.65;6.00;;;5.50;99.90;;;;;;4975851;28;95867;-33
2023/01/09 08:26:54;;;;;;;8.82;5.65;;;5.50;99.90;;;;;;4987970;28;94296;-34
2023/01/09 08:29:20;;;;;;;13.45;5.25;;;5.50;99.90;;;;;;4975735;28;93335;-32
2023/01/09 08:31:45;;;;;;;6.20;4.20;;;5.60;99.90;;;;;;4975106;28;96479;-33
2023/01/09 08:34:11;;;;;;;6.38;3.75;;;5.60;99.90;;;;;;4976653;28;93609;-33
2023/01/09 08:36:37;;;;;;;7.90;4.95;;;5.70;99.90;;;;;;4975387;28;92871;-32
2023/01/09 08:39:02;;;;;;;6.10;4.90;;;5.60;99.90;;;;;;4975667;28;93090;-33
2023/01/09 08:47:06;;;;;;;11.80;5.18;;;5.70;99.90;;;;;;4982523;28;93580;-33
2023/01/09 08:49:37;;;;;;;10.52;5.35;;;5.70;99.90;;;;;;4978745;28;93218;-32
2023/01/09 08:52:03;;;;;;;7.57;4.93;;;5.70;99.90;;;;;;4982918;28;95332;-32
2023/01/09 08:54:29;;;;;;;7.57;4.07;;;5.70;99.90;;;;;;4980380;28;94829;-31
2023/01/09 08:56:55;;;;;;;11.57;4.68;;;5.80;99.90;;;;;;4989596;28;93423;-34
2023/01/09 08:59:21;;;;;;;10.65;4.63;;;5.80;99.90;;;;;;4978602;28;91583;-35
2023/01/09 09:01:46;;;;;;;5.57;4.13;;;5.80;99.90;;;;;;4978435;28;94977;-32
2023/01/09 09:04:12;;;;;;;8.00;5.07;;;5.90;99.90;;;;;;4978890;28;95996;-32
2023/01/09 09:06:37;;;;;;;11.60;5.00;;;5.90;99.90;;;;;;4977570;28;95056;-32
2023/01/09 09:09:05;;;;;;;8.25;4.85;;;6.00;99.90;;;;;;4979156;28;93356;-34
2023/01/09 09:11:33;;;;;;;5.82;4.28;;;6.00;99.90;;;;;;4978966;28;95148;-32
2023/01/09 09:15:11;;;;;;;7.57;4.25;;;6.00;99.90;;;;;;4979337;28;94382;-34
2023/01/09 09:16:47;;;;;;;14.17;5.67;;;6.00;99.90;;;;;;4986106;28;93203;-34
2023/01/09 09:19:13;;;;;;;5.20;4.63;;;6.00;99.90;;;;;;4978295;28;93489;-34
2023/01/09 09:21:39;;;;;;;8.30;5.20;;;6.00;99.90;;;;;;4978110;28;94937;-32
2023/01/09 09:24:04;;;;;;;10.98;5.18;;;6.00;99.90;;;;;;4978253;28;94463;-33
2023/01/09 09:26:31;;;;;;;10.93;5.10;;;6.10;99.90;;;;;;4978964;28;93937;-33
2023/01/09 09:28:57;;;;;;;9.25;4.68;;;6.10;99.90;;;;;;4990363;28;93108;-35
2023/01/09 09:31:23;;;;;;;6.43;4.45;;;6.10;99.90;;;;;;4978139;28;96244;-31
2023/01/09 09:33:49;;;;;;;9.70;6.10;;;6.10;99.90;;;;;;4978642;28;95270;-33
2023/01/09 09:36:14;;;;;;;8.00;4.97;;;6.20;99.90;;;;;;4978107;28;92468;-32
2023/01/09 09:38:40;;;;;;;6.40;4.85;;;6.20;99.90;;;;;;5015092;22;94543;-32
2023/01/09 09:44:42;;;;;;;10.05;5.30;;;6.30;99.90;;;;;;4938179;28;92331;-34
2023/01/09 09:47:22;;;;;;;8.32;5.57;;;6.30;99.90;;;;;;4967321;28;93412;-35
2023/01/09 09:49:57;;;;;;;9.68;4.20;;;6.40;99.90;;;;;;4962148;28;93757;-32
2023/01/09 09:52:35;;;;;;;6.90;4.78;;;6.40;99.90;;;;;;4959010;28;94544;-34
2023/01/09 09:55:11;;;;;;;5.30;4.45;;;6.50;99.90;;;;;;4971598;28;94618;-33
2023/01/09 09:57:37;;;;;;;8.77;4.68;;;6.60;99.90;;;;;;4957768;28;95093;-35
2023/01/09 10:00:05;;;;;;;14.85;6.05;;;6.60;99.90;;;;;;4977811;28;94375;-35
2023/01/09 10:02:49;;;;;;;8.30;5.07;;;6.70;99.90;;;;;;4976454;28;95473;-33
2023/01/09 10:05:26;;;;;;;10.60;5.10;;;6.70;99.90;;;;;;4957745;28;94572;-35
2023/01/09 10:07:52;;;;;;;9.07;5.50;;;6.70;99.90;;;;;;4967761;28;93254;-33
2023/01/09 10:10:42;;;;;;;10.90;5.18;;;6.80;99.90;;;;;;4974632;28;94312;-32
2023/01/09 10:16:20;;;;;;;12.52;4.80;;;6.80;99.90;;;;;;4958183;28;94551;-33
2023/01/09 10:19:05;;;;;;;8.68;4.00;;;6.80;99.90;;;;;;4958957;28;92636;-32
2023/01/09 10:21:59;;;;;;;5.40;4.50;;;6.90;99.90;;;;;;4963953;28;93314;-32
2023/01/09 10:24:46;;;;;;;14.52;5.75;;;6.90;99.90;;;;;;4956943;28;95381;-34
2023/01/09 10:27:53;;;;;;;9.02;3.95;;;6.90;99.90;;;;;;4958359;28;94509;-32
2023/01/09 10:30:44;;;;;;;5.68;4.65;;;7.00;99.90;;;;;;4960592;28;92157;-34
2023/01/09 10:33:41;;;;;;;5.82;4.53;;;7.00;99.90;;;;;;4960489;28;93113;-35
2023/01/09 10:36:19;;;;;;;6.93;5.07;;;7.00;99.90;;;;;;4960177;28;94927;-32
2023/01/09 10:38:49;;;;;;;7.55;3.97;;;7.00;99.90;;;;;;4963268;28;94141;-31
2023/01/09 10:41:29;;;;;;;8.93;4.15;;;7.00;99.90;;;;;;4948702;28;94835;-31
2023/01/09 10:43:58;;;;;;;7.45;3.45;;;6.90;99.90;;;;;;4959998;28;91814;-33
2023/01/09 10:46:29;;;;;;;4.47;3.70;;;6.90;99.90;;;;;;4969164;28;93478;-35
2023/01/09 10:48:59;;;;;;;7.47;4.55;;;7.00;99.90;;;;;;4959101;28;95094;-32
2023/01/09 10:51:51;;;;;;;4.38;3.38;;;6.90;99.90;;;;;;4972386;28;94126;-32
2023/01/09 10:54:22;;;;;;;8.18;4.60;;;7.00;99.90;;;;;;4971822;28;93442;-34
2023/01/09 10:56:58;;;;;;;4.45;3.65;;;7.00;99.90;;;;;;4976110;28;94877;-34
2023/01/09 10:59:24;;;;;;;5.50;4.18;;;6.90;99.90;;;;;;4974692;28;94340;-33
2023/01/09 11:01:50;;;;;;;8.60;4.47;;;6.90;99.90;;;;;;4962438;28;94475;-33
2023/01/09 11:04:28;;;;;;;4.93;3.65;;;6.90;99.90;;;;;;4976238;28;93851;-34
2023/01/09 11:06:59;;;;;;;9.02;4.35;;;7.00;99.90;;;;;;4957075;28;93824;-35
2023/01/09 11:09:25;;;;;;;8.85;4.20;;;7.00;99.90;;;;;;4971605;28;93779;-33
2023/01/09 11:11:50;;;;;;;8.27;4.85;;;7.00;99.90;;;;;;4976734;28;93097;-31
2023/01/09 11:14:30;;;;;;;6.35;4.60;;;7.00;99.90;;;;;;4975833;28;94754;-32
2023/01/09 11:17:03;;;;;;;6.80;4.40;;;7.10;99.90;;;;;;4975276;28;95799;-32
2023/01/09 11:19:32;;;;;;;5.03;4.45;;;7.10;99.90;;;;;;4959558;28;96058;-31
2023/01/09 11:22:14;;;;;;;10.23;4.80;;;7.10;99.90;;;;;;4956785;28;94572;-32
2023/01/09 11:24:40;;;;;;;5.07;4.57;;;7.00;99.90;;;;;;4956817;28;95116;-31
2023/01/09 11:27:11;;;;;;;7.88;4.80;;;7.00;99.90;;;;;;4957004;28;95360;-33
2023/01/09 11:29:38;;;;;;;9.60;5.75;;;7.10;99.90;;;;;;4957021;28;94456;-33
2023/01/09 11:32:04;;;;;;;5.45;4.82;;;7.00;99.90;;;;;;4957648;28;94694;-34
2023/01/09 11:34:32;;;;;;;5.43;4.93;;;7.00;99.90;;;;;;4962145;28;91445;-32
2023/01/09 11:37:12;;;;;;;5.20;4.55;;;7.00;99.90;;;;;;4975498;28;95047;-32
2023/01/09 11:39:44;;;;;;;7.43;5.53;;;7.10;99.90;;;;;;4970163;28;94471;-34
2023/01/09 11:45:17;;;;;;;6.30;4.95;;;7.00;99.90;;;;;;4960493;28;92991;-32
2023/01/09 11:47:44;;;;;;;6.78;4.65;;;7.00;99.90;;;;;;4957305;28;94529;-34
2023/01/09 11:50:27;;;;;;;6.72;6.10;;;7.00;99.90;;;;;;4973258;28;94877;-32
2023/01/09 11:53:15;;;;;;;14.52;5.95;;;7.00;99.90;;;;;;4976296;28;92126;-32
2023/01/09 11:55:42;;;;;;;7.78;4.53;;;7.00;99.90;;;;;;4964344;28;94119;-36
2023/01/09 11:58:20;;;;;;;10.95;5.72;;;7.00;99.90;;;;;;4962013;28;93338;-32
2023/01/09 12:01:04;;;;;;;6.88;5.28;;;7.00;99.90;;;;;;4944142;28;96997;-32
2023/01/09 12:03:39;;;;;;;9.27;5.97;;;7.00;99.90;;;;;;4955530;28;94633;-32
2023/01/09 12:06:41;;;;;;;8.88;6.07;;;7.00;99.90;;;;;;4957287;28;93016;-34
2023/01/09 12:09:25;;;;;;;7.10;6.40;;;7.00;99.90;;;;;;4956111;28;96038;-32
2023/01/09 12:12:01;;;;;;;10.05;7.10;;;7.00;99.90;;;;;;4956544;28;95799;-34
2023/01/09 12:14:59;;;;;;;8.50;7.05;;;7.00;99.90;;;;;;4957694;28;94455;-32
2023/01/09 12:17:38;;;;;;;7.55;6.45;;;7.00;99.90;;;;;;4959657;28;93390;-33
2023/01/09 12:20:21;;;;;;;9.32;7.72;;;6.90;99.90;;;;;;4959945;28;94903;-35
2023/01/09 12:23:13;;;;;;;13.95;7.70;;;6.90;99.90;;;;;;4966968;28;95153;-32
2023/01/09 12:25:50;;;;;;;10.20;8.63;;;6.90;99.90;;;;;;4959295;28;93032;-32
2023/01/09 12:28:47;;;;;;;13.25;9.82;;;6.90;99.90;;;;;;4958914;28;91318;-33
2023/01/09 12:31:38;;;;;;;10.93;8.82;;;6.90;99.90;;;;;;4958613;28;93712;-34
2023/01/09 12:34:06;;;;;;;10.73;9.23;;;6.90;99.90;;;;;;4958192;28;94033;-33
2023/01/09 12:36:50;;;;;;;11.55;9.32;;;7.00;99.90;;;;;;4958793;28;94676;-34
2023/01/09 12:39:19;;;;;;;12.13;9.80;;;7.00;99.90;;;;;;4959031;28;93538;-31
2023/01/09 12:41:51;;;;;;;;;;;7.00;99.90;;;;;;4960563;28;94762;-33
2023/01/09 12:44:45;;;;;;;17.23;10.05;;;7.00;99.90;;;;;;4961914;28;93643;-34
2023/01/09 12:47:30;;;;;;;14.07;9.88;;;7.00;99.90;;;;;;4950302;28;93362;-33
2023/01/09 12:50:13;;;;;;;16.25;10.32;;;7.10;99.90;;;;;;4961739;28;94149;-32
2023/01/09 12:52:58;;;;;;;9.85;8.50;;;7.10;99.90;;;;;;4960427;28;95218;-34
2023/01/09 12:55:31;;;;;;;9.93;8.85;;;7.10;99.90;;;;;;4978956;28;94110;-32
2023/01/09 12:58:00;;;;;;;16.33;10.45;;;7.10;99.90;;;;;;4965181;28;93279;-34
2023/01/09 13:00:46;;;;;;;14.80;9.73;;;7.10;99.90;;;;;;4978466;28;92184;-31
2023/01/09 13:03:26;;;;;;;18.92;10.10;;;7.10;99.90;;;;;;4958341;28;95208;-32
2023/01/09 13:05:53;;;;;;;14.25;9.95;;;7.10;99.90;;;;;;4939556;28;96995;-33
2023/01/09 13:08:36;;;;;;;12.38;9.73;;;7.10;99.90;;;;;;4959589;28;93737;-33
2023/01/09 13:11:34;;;;;;;12.48;10.75;;;7.20;99.90;;;;;;4985445;28;93248;-32
2023/01/09 13:14:16;;;;;;;11.13;10.02;;;7.20;99.90;;;;;;4955815;28;94721;-32
2023/01/09 13:16:46;;;;;;;12.73;9.85;;;7.20;99.90;;;;;;4959165;28;94925;-34
2023/01/09 13:19:24;;;;;;;12.32;10.00;;;7.20;99.90;;;;;;4960943;28;94287;-33
2023/01/09 13:21:51;;;;;;;18.83;10.10;;;7.20;99.90;;;;;;4959502;28;92020;-34
2023/01/09 13:24:41;;;;;;;11.55;9.75;;;7.20;99.90;;;;;;4958477;28;94992;-33
2023/01/09 13:27:11;;;;;;;12.85;10.20;;;7.20;99.90;;;;;;4957927;28;94823;-32
2023/01/09 13:29:42;;;;;;;17.75;10.38;;;7.20;99.90;;;;;;4969285;28;94135;-32